Monday, June 25, 2018, 7:36 PM GMT
Back to Local

CYQM, Moncton, N. B.

Location: , , Canada Lat: 46.117
Local Time: 7:36 PM GMT (19:36 GMT) Lon: -64.683
Time Zone: GMT Elev: 232 ft

Show me the last for .
Show Decoded

2018-06-25 19:04 METAR CYQM 251904Z 01018G25KT 8SM -SHRA OVC014 10/08 A2990 RMK SC8 CVCTV CLD
                 EMBD SLP127 =
2018-06-25 19:00 METAR CYQM 251900Z 01014G25KT 8SM OVC015 10/09 A2989 RMK SC8 SLP126 =
2018-06-25 18:32 METAR CYQM 251832Z 01018G25KT 8SM OVC010 10/09 A2989 RMK SC8 SLP124 =
2018-06-25 18:00 METAR CYQM 251800Z 02019G24KT 8SM -RA OVC013 10/09 A2987 RMK SC8 SLP117 =
2018-06-25 17:00 METAR CYQM 251700Z 02015G21KT 8SM -RA OVC013 11/10 A2988 RMK SC8 SLP121 =
2018-06-25 16:00 METAR CYQM 251600Z 01015KT 6SM -RA BR BKN008 BKN015 OVC080 11/10 A2987 RMK
                 SF5SC1AC2 SLP120 =
2018-06-25 15:00 METAR CYQM 251500Z 03010G19KT 5SM -RA BR OVC006 11/10 A2988 RMK SF8 SLP122 =
2018-06-25 14:00 METAR CYQM 251400Z 01012G17KT 6SM -RA BR OVC007 10/09 A2989 RMK SF8 SLP124 =
2018-06-25 13:00 METAR CYQM 251300Z 02012G18KT 6SM -RA BR SCT008 BKN018 OVC076 10/09 A2988 RMK
                 SF3SC3AC2 SLP123 =
2018-06-25 12:00 METAR CYQM 251200Z 03012G18KT 5SM -RA BR SCT007 BKN018 OVC073 10/09 A2988 RMK
                 SF4SC2AC2 SLP123 =
2018-06-25 11:00 METAR CYQM 251100Z 03011G16KT 5SM -RA BR FEW007 SCT018 OVC066 10/09 A2989 RMK
                 SF2SC2AC4 SLP123 =
2018-06-25 10:00 METAR CYQM 251000Z 02013G19KT 5SM -RA BR BKN008 OVC070 10/09 A2986 RMK SF7AC1
                 SLP115 =
2018-06-25 09:00 METAR CYQM 250900Z 04010G16KT 5SM -RA BR BKN004 OVC007 10/09 A2986 RMK SF7SF1
                 SLP115 =
2018-06-25 08:19 METAR CYQM 250819Z 02011KT 8SM -RA OVC004 10/10 A2987 RMK SF8 SLP116 =
2018-06-25 08:00 METAR CYQM 250800Z 03010KT 8SM -RA BKN003 OVC005 10/10 A2987 RMK SF7SF1 SLP116 =
2018-06-25 07:00 METAR CYQM 250700Z 02010G15KT 8SM -RA BKN003 BKN005 OVC020 10/10 A2987 RMK
                 SF6SF1SC1 SLP117 =
2018-06-25 06:00 METAR CYQM 250600Z 01010KT 8SM -RA OVC003 11/10 A2986 RMK SF8 SLP113 =
2018-06-25 05:39 METAR CYQM 250539Z 01008KT 8SM -RA OVC003 11/10 A2986 RMK SF8 SLP114 =
2018-06-25 05:00 METAR CYQM 250500Z 01008KT 8SM -RADZ OVC003 11/10 A2986 RMK SF8 SLP115 =
2018-06-25 04:00 METAR CYQM 250400Z 36006KT 8SM -RADZ BKN003 OVC025 10/10 A2987 RMK SF7SC1 SLP116
                 =
2018-06-25 03:00 METAR CYQM 250300Z CCA 36008KT 6SM -RADZ BR BKN003 OVC025 10/10 A2988 RMK SF6SC2
                 SLP120 =
2018-06-25 02:37 METAR CYQM 250237Z 35006KT 3SM -RADZ BR BKN003 OVC030 10/10 A2988 RMK SF6SC2
                 SLP122 =
2018-06-25 02:00 METAR CYQM 250200Z 36008KT 5SM -RA BR BKN005 OVC035 10/10 A2989 RMK SF7SC1
                 SLP123 =
2018-06-25 01:31 METAR CYQM 250131Z 36008KT 7SM SHRA BKN007 OVC035 11/10 A2988 RMK SF7SC1 SLP122
                 =
2018-06-25 01:00 METAR CYQM 250100Z 35008KT 8SM -SHRA BKN006 OVC032 11/10 A2987 RMK SF6SC2 CVCTV
                 CLD EMBD SLP119 =
2018-06-25 00:41 METAR CYQM 250041Z 36011KT 8SM SHRA BKN006 OVC032 11/10 A2987 RMK SF6SC2 CVCTV
                 CLD EMBD SLP118 =
2018-06-25 00:28 METAR CYQM 250028Z 36010KT 8SM -SHRA BKN009 OVC032 11/10 A2986 RMK SF6SC2 CVCTV
                 CLD EMBD SLP115 =
2018-06-25 00:16 METAR CYQM 250016Z 01008KT 8SM -SHRA FEW012 OVC035 11/10 A2986 RMK SF2SC6 SLP114
                 =
2018-06-25 00:05 METAR CYQM 250005Z 36010KT 4SM SHRA BR FEW010 OVC035 11/10 A2985 RMK SF2SC6
                 CVCTV CLD EMBD SLP112 =
2018-06-25 00:00 METAR CYQM 250000Z 36010KT 8SM -SHRA FEW010 BKN035 OVC085 12/10 A2985 RMK
                 SF2SC5AC1 CVCTV CLD EMBD SLP112 =
2018-06-24 23:44 METAR CYQM 242344Z 36007KT 12SM -SHRA FEW018 OVC035 12/10 A2985 RMK CF1SC7
                 SLP110 =
2018-06-24 23:00 METAR CYQM 242300Z CCA 35012KT 15SM FEW018 BKN030 OVC095 12/10 A2983 RMK
                 CF1SC6AC1 SH NW PRESRR SLP105 =
2018-06-24 22:00 METAR CYQM 242200Z 01013KT 15SM BKN030 OVC095 14/11 A2981 RMK SC7AC1 SLP096
                 DENSITY ALT 400FT =
2018-06-24 21:00 METAR CYQM 242100Z 01012G20KT 12SM SCT033 BKN038 BKN081 16/11 A2978 RMK
                 SC3SC3AC1 SLP086 DENSITY ALT 600FT =
2018-06-24 20:00 METAR CYQM 242000Z 02017G23KT 15SM FEW020 FEW060 SCT130 BKN190 BKN200 18/13
                 A2974 RMK CU2SC1AC2AC1CI1 SC TR SLP073 DENSITY ALT 900FT =

Support USWX by starting your Amazon purchase here.